createdAt,value
2023-04-22T00:01:19.540Z,12.45
2023-04-22T00:03:47.256Z,11.74
2023-04-22T00:06:14.571Z,11.09
2023-04-22T00:08:41.712Z,10.39
2023-04-22T00:11:09.195Z,10.17
2023-04-22T00:13:37.147Z,10.29
2023-04-22T00:16:04.752Z,10.30
2023-04-22T00:18:34.321Z,10.55
2023-04-22T00:21:01.652Z,9.83
2023-04-22T00:23:28.850Z,9.76
2023-04-22T00:25:56.271Z,9.64
2023-04-22T00:28:23.463Z,10.03
2023-04-22T00:30:50.899Z,10.38
2023-04-22T00:33:18.350Z,10.76
2023-04-22T00:35:46.279Z,10.73
2023-04-22T00:38:13.472Z,10.57
2023-04-22T00:40:40.947Z,10.30
2023-04-22T00:43:08.576Z,10.10
2023-04-22T00:45:36.714Z,10.26
2023-04-22T00:48:04.225Z,10.25
2023-04-22T00:50:31.428Z,10.35
2023-04-22T00:52:58.582Z,9.94
2023-04-22T00:55:26.091Z,9.79
2023-04-22T00:57:53.253Z,9.87
2023-04-22T01:00:23.948Z,9.54
2023-04-22T01:02:51.526Z,10.07
2023-04-22T01:05:18.890Z,11.11
2023-04-22T01:07:46.293Z,10.72
2023-04-22T01:10:13.771Z,10.11
2023-04-22T01:12:40.960Z,10.26
2023-04-22T01:15:08.882Z,11.78
2023-04-22T01:17:36.458Z,12.33
2023-04-22T01:20:10.112Z,12.34
2023-04-22T01:22:40.659Z,12.08
2023-04-22T01:25:08.819Z,12.08
2023-04-22T01:27:36.248Z,11.14
2023-04-22T01:30:04.497Z,10.56
2023-04-22T01:32:32.329Z,10.18
2023-04-22T01:34:59.564Z,9.72
2023-04-22T01:37:26.965Z,9.45
2023-04-22T01:39:54.138Z,9.38
2023-04-22T01:42:21.568Z,9.15
2023-04-22T01:44:48.967Z,9.11
2023-04-22T01:47:16.094Z,9.10
2023-04-22T01:49:43.362Z,9.37
2023-04-22T01:52:12.300Z,9.47
2023-04-22T01:54:39.413Z,10.03
2023-04-22T01:57:08.441Z,10.00
2023-04-22T01:59:35.876Z,9.51
2023-04-22T02:02:03.110Z,10.04
2023-04-22T02:04:30.614Z,9.93
2023-04-22T02:06:57.992Z,10.23
2023-04-22T02:09:25.198Z,10.88
2023-04-22T02:11:52.625Z,10.76
2023-04-22T02:14:23.782Z,10.68
2023-04-22T02:16:51.815Z,10.49
2023-04-22T02:19:19.244Z,11.04
2023-04-22T02:21:46.379Z,11.25
2023-04-22T02:24:13.551Z,11.19
2023-04-22T02:26:41.565Z,10.80
2023-04-22T02:29:08.810Z,10.62
2023-04-22T02:31:36.001Z,10.18
2023-04-22T02:34:03.595Z,10.18
2023-04-22T02:36:31.963Z,9.82
2023-04-22T02:38:59.348Z,10.03
2023-04-22T02:41:26.812Z,10.39
2023-04-22T02:43:54.077Z,10.21
2023-04-22T02:46:21.259Z,9.72
2023-04-22T02:48:49.420Z,9.50
2023-04-22T02:51:16.583Z,9.17
2023-04-22T02:53:43.735Z,9.71
2023-04-22T02:56:11.279Z,9.32
2023-04-22T02:58:38.421Z,9.34
2023-04-22T03:01:05.797Z,9.63
2023-04-22T03:03:33.484Z,10.10
2023-04-22T03:06:00.933Z,10.38
2023-04-22T03:08:28.446Z,11.03
2023-04-22T03:10:55.867Z,11.11
2023-04-22T03:13:23.002Z,11.15
2023-04-22T03:15:51.086Z,11.20
2023-04-22T03:18:19.805Z,10.68
2023-04-22T03:20:47.121Z,10.23
2023-04-22T03:23:15.333Z,9.35
2023-04-22T03:25:42.831Z,9.21
2023-04-22T03:28:09.980Z,8.85
2023-04-22T03:30:37.198Z,9.14
2023-04-22T03:33:04.688Z,8.95
2023-04-22T03:35:32.306Z,9.12
2023-04-22T03:37:59.841Z,9.28
2023-04-22T03:40:27.519Z,8.93
2023-04-22T03:42:55.126Z,8.84
2023-04-22T03:45:23.225Z,9.03
2023-04-22T03:47:51.587Z,9.20
2023-04-22T03:50:19.869Z,10.15
2023-04-22T03:52:47.804Z,10.84
2023-04-22T03:55:17.836Z,10.68
2023-04-22T03:57:45.913Z,10.50
2023-04-22T04:00:13.221Z,10.66
2023-04-22T04:02:41.794Z,10.65
2023-04-22T04:05:11.482Z,10.36
2023-04-22T04:07:38.876Z,10.76
2023-04-22T04:10:07.490Z,11.18
2023-04-22T04:12:35.091Z,10.87
2023-04-22T04:15:02.404Z,10.30
2023-04-22T04:17:30.612Z,9.93
2023-04-22T04:19:58.800Z,9.99
2023-04-22T04:22:28.027Z,10.00
2023-04-22T04:24:56.161Z,9.70
2023-04-22T04:27:24.861Z,9.64
2023-04-22T04:29:52.659Z,9.72
2023-04-22T04:32:20.108Z,9.41
2023-04-22T04:34:48.990Z,9.80
2023-04-22T04:37:16.891Z,9.75
2023-04-22T04:39:44.795Z,9.80
2023-04-22T04:42:14.407Z,9.86
2023-04-22T04:44:42.276Z,10.63
2023-04-22T04:47:09.554Z,10.57
2023-04-22T04:49:40.601Z,10.56
2023-04-22T04:52:10.322Z,10.36
2023-04-22T04:54:38.328Z,10.34
2023-04-22T04:57:06.041Z,9.95
2023-04-22T04:59:33.414Z,9.78
2023-04-22T05:02:01.145Z,10.02
2023-04-22T05:04:29.382Z,10.12
2023-04-22T05:06:57.331Z,10.45
2023-04-22T05:09:25.182Z,10.78
2023-04-22T05:11:52.466Z,10.55
2023-04-22T05:14:20.288Z,10.95
2023-04-22T05:16:47.917Z,11.46
2023-04-22T05:19:15.256Z,12.19
2023-04-22T05:21:42.629Z,11.84
2023-04-22T05:24:10.354Z,11.14
2023-04-22T05:26:37.687Z,10.94
2023-04-22T05:29:08.055Z,10.94
2023-04-22T05:31:35.605Z,10.80
2023-04-22T05:34:02.817Z,11.10
2023-04-22T05:36:31.617Z,11.02
2023-04-22T05:38:59.314Z,11.12
2023-04-22T05:41:27.465Z,11.30
2023-04-22T05:43:55.602Z,11.43
2023-04-22T05:46:23.363Z,11.43
2023-04-22T05:48:51.320Z,12.02
2023-04-22T05:51:19.387Z,12.59
2023-04-22T05:53:46.825Z,13.41
2023-04-22T05:56:14.050Z,13.73
2023-04-22T05:58:41.214Z,13.82
2023-04-22T06:01:09.218Z,14.03
2023-04-22T06:03:38.259Z,14.62
2023-04-22T06:06:06.481Z,14.33
2023-04-22T06:08:33.703Z,13.75
2023-04-22T06:11:01.109Z,13.49
2023-04-22T06:13:28.687Z,13.86
2023-04-22T06:15:56.022Z,14.21
2023-04-22T06:18:23.465Z,14.04
2023-04-22T06:20:51.688Z,14.53
2023-04-22T06:23:18.929Z,14.78
2023-04-22T06:25:47.553Z,15.33
2023-04-22T06:28:14.945Z,15.49
2023-04-22T06:30:43.856Z,15.47
2023-04-22T06:33:11.599Z,15.69
2023-04-22T06:35:39.334Z,15.61
2023-04-22T06:38:06.549Z,15.77
2023-04-22T06:40:34.701Z,16.00
2023-04-22T06:43:02.511Z,15.94
2023-04-22T06:45:34.101Z,16.04
2023-04-22T06:48:01.989Z,15.81
2023-04-22T06:50:29.395Z,16.01
2023-04-22T06:52:57.956Z,16.27
2023-04-22T06:55:25.152Z,16.61
2023-04-22T06:57:52.401Z,16.38
2023-04-22T07:00:19.866Z,16.25
2023-04-22T07:02:47.209Z,16.48
2023-04-22T07:05:15.602Z,16.63
2023-04-22T07:07:43.240Z,16.78
2023-04-22T07:10:13.709Z,16.47
2023-04-22T07:12:41.370Z,16.95
2023-04-22T07:15:08.849Z,16.92
2023-04-22T07:17:36.102Z,17.32
2023-04-22T07:20:03.803Z,17.34
2023-04-22T07:22:31.270Z,17.81
2023-04-22T07:24:58.421Z,18.21
2023-04-22T07:27:25.718Z,18.18
2023-04-22T07:29:53.224Z,18.46
2023-04-22T07:32:20.404Z,19.08
2023-04-22T07:34:47.584Z,19.58
2023-04-22T07:37:14.961Z,20.38
2023-04-22T07:39:42.378Z,19.86
2023-04-22T07:42:09.690Z,21.70
2023-04-22T07:44:39.355Z,23.34
2023-04-22T07:47:08.517Z,22.76
2023-04-22T07:49:35.871Z,24.71
2023-04-22T07:52:03.455Z,25.96
2023-04-22T07:54:30.687Z,26.14
2023-04-22T07:56:58.395Z,26.64
2023-04-22T07:59:25.872Z,23.84
2023-04-22T08:01:53.166Z,23.65
2023-04-22T08:04:23.026Z,24.60
2023-04-22T08:06:50.432Z,25.31
2023-04-22T08:09:17.590Z,24.97
2023-04-22T08:11:45.094Z,24.97
2023-04-22T08:14:12.225Z,23.67
2023-04-22T08:16:39.680Z,24.08
2023-04-22T08:19:07.141Z,23.17
2023-04-22T08:21:37.102Z,23.96
2023-04-22T08:24:06.186Z,23.24
2023-04-22T08:26:33.660Z,23.54
2023-04-22T08:29:01.256Z,23.54
2023-04-22T08:31:28.767Z,22.40
2023-04-22T08:33:56.528Z,22.28
2023-04-22T08:36:25.933Z,23.12
2023-04-22T08:38:53.212Z,24.70
2023-04-22T08:41:21.750Z,25.03
2023-04-22T08:43:49.372Z,24.49
2023-04-22T08:46:17.614Z,23.66
2023-04-22T08:48:45.101Z,24.55
2023-04-22T08:51:12.419Z,22.72
2023-04-22T08:53:39.578Z,24.18
2023-04-22T08:56:06.987Z,24.84
2023-04-22T08:58:34.698Z,25.08
2023-04-22T09:01:03.468Z,24.49
2023-04-22T09:03:31.619Z,23.74
2023-04-22T09:05:58.829Z,24.02
2023-04-22T09:08:26.616Z,21.94
2023-04-22T09:10:54.041Z,21.92
2023-04-22T09:13:21.564Z,23.18
2023-04-22T09:15:48.749Z,23.20
2023-04-22T09:18:18.832Z,23.49
2023-04-22T09:20:49.477Z,22.57
2023-04-22T09:23:16.951Z,23.04
2023-04-22T09:25:44.941Z,22.35
2023-04-22T09:28:12.800Z,22.11
2023-04-22T09:30:40.421Z,22.70
2023-04-22T09:33:07.989Z,22.16
2023-04-22T09:35:36.196Z,23.10
2023-04-22T09:38:04.855Z,23.88
2023-04-22T09:40:32.059Z,24.22
2023-04-22T09:43:00.066Z,23.87
2023-04-22T09:45:28.908Z,23.20
2023-04-22T09:47:57.013Z,22.90
2023-04-22T09:50:24.623Z,23.98
2023-04-22T09:52:59.564Z,24.21
2023-04-22T09:55:27.641Z,24.68
2023-04-22T09:57:55.870Z,24.98
2023-04-22T10:00:24.450Z,24.91
2023-04-22T10:02:52.031Z,24.99
2023-04-22T10:05:19.473Z,24.84
2023-04-22T10:07:46.676Z,25.18
2023-04-22T10:10:14.281Z,26.09
2023-04-22T10:12:41.424Z,25.76
2023-04-22T10:15:08.868Z,25.94
2023-04-22T10:17:38.935Z,25.08
2023-04-22T10:20:13.485Z,24.90
2023-04-22T10:22:41.979Z,25.72
2023-04-22T10:25:29.125Z,26.05
2023-04-22T10:28:06.297Z,25.81
2023-04-22T10:30:34.581Z,25.57
2023-04-22T10:33:39.170Z,25.34
2023-04-22T10:36:10.441Z,24.50
2023-04-22T10:38:38.397Z,25.68
2023-04-22T10:41:05.531Z,26.23
2023-04-22T10:43:42.792Z,26.39
2023-04-22T10:46:29.082Z,26.50
2023-04-22T10:48:59.487Z,26.03
2023-04-22T10:51:39.329Z,25.79
2023-04-22T10:54:06.831Z,26.12
2023-04-22T10:56:35.395Z,25.53
2023-04-22T10:59:15.536Z,25.44
2023-04-22T11:01:43.135Z,25.59
2023-04-22T11:04:20.420Z,25.14
2023-04-22T11:07:08.267Z,24.23
2023-04-22T11:09:39.456Z,23.25
2023-04-22T11:12:26.115Z,23.44
2023-04-22T11:14:53.276Z,22.25
2023-04-22T11:17:20.860Z,21.53
2023-04-22T11:19:48.091Z,20.60
2023-04-22T11:22:15.336Z,21.76
2023-04-22T11:24:53.292Z,21.10
2023-04-22T11:27:26.234Z,21.35
2023-04-22T11:30:08.108Z,20.84
2023-04-22T11:32:36.110Z,20.31
2023-04-22T11:35:07.359Z,20.40
2023-04-22T11:37:40.348Z,20.23
2023-04-22T11:40:27.944Z,20.26
2023-04-22T11:42:56.527Z,20.78
2023-04-22T11:45:24.164Z,20.78
2023-04-22T11:47:51.529Z,20.69
2023-04-22T11:50:22.091Z,21.12
2023-04-22T11:52:50.361Z,22.20
2023-04-22T11:55:27.130Z,22.64
2023-04-22T11:58:01.232Z,22.90
2023-04-22T12:00:32.953Z,23.08
2023-04-22T12:03:03.348Z,23.45
2023-04-22T12:05:33.972Z,23.46
2023-04-22T12:08:03.563Z,23.84
2023-04-22T12:10:30.855Z,23.92
2023-04-22T12:12:58.030Z,23.56
2023-04-22T12:15:25.686Z,22.55
2023-04-22T12:17:52.995Z,22.16
2023-04-22T12:20:20.220Z,22.05
2023-04-22T12:22:47.739Z,21.94
2023-04-22T12:25:17.708Z,21.57
2023-04-22T12:27:44.908Z,21.84
2023-04-22T12:30:12.648Z,22.29
2023-04-22T12:32:39.919Z,22.10
2023-04-22T12:35:08.598Z,21.63
2023-04-22T12:37:36.162Z,22.38
2023-04-22T12:40:04.407Z,21.76
2023-04-22T12:42:31.735Z,21.33
2023-04-22T12:44:59.244Z,21.91
2023-04-22T12:47:26.425Z,22.11
2023-04-22T12:49:53.588Z,22.34
2023-04-22T12:52:21.300Z,22.68
2023-04-22T12:54:49.199Z,23.73
2023-04-22T12:57:16.383Z,23.23
2023-04-22T12:59:45.343Z,23.12
2023-04-22T13:02:12.715Z,23.38
2023-04-22T13:04:40.109Z,22.41
2023-04-22T13:07:07.561Z,22.55
2023-04-22T13:09:34.690Z,23.70
2023-04-22T13:12:03.390Z,24.22
2023-04-22T13:14:30.894Z,24.59
2023-04-22T13:16:58.084Z,24.52
2023-04-22T13:19:27.019Z,25.23
2023-04-22T13:21:54.695Z,25.72
2023-04-22T13:24:22.305Z,25.75
2023-04-22T13:26:49.495Z,25.69
2023-04-22T13:29:16.990Z,23.12
2023-04-22T13:31:44.801Z,22.90
2023-04-22T13:34:12.131Z,22.82
2023-04-22T13:36:39.651Z,22.96
2023-04-22T13:39:07.194Z,23.72
2023-04-22T13:41:34.657Z,23.99
2023-04-22T13:44:03.908Z,23.00
2023-04-22T13:46:31.087Z,22.33
2023-04-22T13:48:58.680Z,22.37
2023-04-22T13:51:26.149Z,23.94
2023-04-22T13:53:53.324Z,23.28
2023-04-22T13:56:20.500Z,23.16
2023-04-22T13:58:48.011Z,22.83
2023-04-22T14:01:15.192Z,23.54
2023-04-22T14:03:42.747Z,23.48
2023-04-22T14:06:09.951Z,23.96
2023-04-22T14:08:37.602Z,23.44
2023-04-22T14:11:06.417Z,23.62
2023-04-22T14:13:33.550Z,24.31
2023-04-22T14:16:01.222Z,24.71
2023-04-22T14:18:28.924Z,24.10
2023-04-22T14:20:56.916Z,23.70
2023-04-22T14:23:24.377Z,24.53
2023-04-22T14:25:51.900Z,24.33
2023-04-22T14:28:19.051Z,24.61
2023-04-22T14:30:46.195Z,24.61
2023-04-22T14:33:13.705Z,24.59
2023-04-22T14:35:40.966Z,24.43
2023-04-22T14:38:10.078Z,23.73
2023-04-22T14:40:37.912Z,24.11
2023-04-22T14:43:05.705Z,24.24
2023-04-22T14:45:33.229Z,24.14
2023-04-22T14:48:00.900Z,22.72
2023-04-22T14:50:28.183Z,23.59
2023-04-22T14:52:55.523Z,23.16
2023-04-22T14:55:24.167Z,23.09
2023-04-22T14:57:57.846Z,23.57
2023-04-22T15:00:25.630Z,24.07
2023-04-22T15:02:54.159Z,24.58
2023-04-22T15:05:23.481Z,24.55
2023-04-22T15:07:51.341Z,24.83
2023-04-22T15:10:18.574Z,25.08
2023-04-22T15:12:45.988Z,24.86
2023-04-22T15:15:15.786Z,24.92
2023-04-22T15:17:43.681Z,24.81
2023-04-22T15:20:11.248Z,25.31
2023-04-22T15:22:40.926Z,25.39
2023-04-22T15:25:10.473Z,25.69
2023-04-22T15:27:38.006Z,25.67
2023-04-22T15:30:06.026Z,25.74
2023-04-22T15:32:33.254Z,25.33
2023-04-22T15:35:00.945Z,25.72
2023-04-22T15:37:28.519Z,25.79
2023-04-22T15:39:55.735Z,25.88
2023-04-22T15:42:22.968Z,25.81
2023-04-22T15:44:50.517Z,25.57
2023-04-22T15:47:18.220Z,24.71
2023-04-22T15:49:45.468Z,23.72
2023-04-22T15:52:12.986Z,23.09
2023-04-22T15:54:40.237Z,23.23
2023-04-22T15:57:07.438Z,22.03
2023-04-22T15:59:34.912Z,22.76
2023-04-22T16:02:02.172Z,22.82
2023-04-22T16:04:29.763Z,22.36
2023-04-22T16:06:59.919Z,22.36
2023-04-22T16:09:27.104Z,22.05
2023-04-22T16:11:56.019Z,21.68
2023-04-22T16:14:23.225Z,21.69
2023-04-22T16:16:50.478Z,21.88
2023-04-22T16:19:20.641Z,22.14
2023-04-22T16:21:47.890Z,21.78
2023-04-22T16:24:15.056Z,21.70
2023-04-22T16:26:43.109Z,21.69
2023-04-22T16:29:10.338Z,21.48
2023-04-22T16:31:38.713Z,21.52
2023-04-22T16:34:06.424Z,21.68
2023-04-22T16:36:35.007Z,21.79
2023-04-22T16:39:02.895Z,21.71
2023-04-22T16:41:31.187Z,21.62
2023-04-22T16:43:58.439Z,22.09
2023-04-22T16:46:25.748Z,22.06
2023-04-22T16:48:53.552Z,21.49
2023-04-22T16:51:20.994Z,21.71
2023-04-22T16:53:48.163Z,21.55
2023-04-22T16:56:15.603Z,21.04
2023-04-22T16:58:42.905Z,21.19
2023-04-22T17:01:10.139Z,20.81
2023-04-22T17:03:37.911Z,21.02
2023-04-22T17:06:05.270Z,20.87
2023-04-22T17:08:32.442Z,20.59
2023-04-22T17:10:59.826Z,20.48
2023-04-22T17:13:27.201Z,20.40
2023-04-22T17:15:54.544Z,20.17
2023-04-22T17:18:22.129Z,20.08
2023-04-22T17:20:49.365Z,19.97
2023-04-22T17:23:16.861Z,19.98
2023-04-22T17:25:46.911Z,19.97
2023-04-22T17:28:14.164Z,20.04
2023-04-22T17:30:41.417Z,20.04
2023-04-22T17:33:08.934Z,20.03
2023-04-22T17:35:36.105Z,20.03
2023-04-22T17:38:03.458Z,20.03
2023-04-22T17:40:31.298Z,19.72
2023-04-22T17:42:59.337Z,19.95
2023-04-22T17:45:26.740Z,20.31
2023-04-22T17:47:54.224Z,20.43
2023-04-22T17:50:23.243Z,20.29
2023-04-22T17:52:50.465Z,20.10
2023-04-22T17:55:18.047Z,20.11
2023-04-22T17:57:45.846Z,19.97
2023-04-22T18:00:14.595Z,19.98
2023-04-22T18:02:42.264Z,19.74
2023-04-22T18:05:09.692Z,19.58
2023-04-22T18:07:36.857Z,19.95
2023-04-22T18:10:04.795Z,19.65
2023-04-22T18:12:31.974Z,19.22
2023-04-22T18:14:59.595Z,19.12
2023-04-22T18:17:27.539Z,18.77
2023-04-22T18:20:06.331Z,18.67
2023-04-22T18:22:46.983Z,18.52
2023-04-22T18:25:15.141Z,18.46
2023-04-22T18:27:43.047Z,18.53
2023-04-22T18:30:10.381Z,18.58
2023-04-22T18:32:38.151Z,18.88
2023-04-22T18:35:06.098Z,18.95
2023-04-22T18:37:34.689Z,19.07
2023-04-22T18:40:02.717Z,19.19
2023-04-22T18:42:30.275Z,18.96
2023-04-22T18:44:57.477Z,18.86
2023-04-22T18:47:24.704Z,18.67
2023-04-22T18:49:52.479Z,18.82
2023-04-22T18:52:19.663Z,19.08
2023-04-22T18:54:46.914Z,18.71
2023-04-22T18:57:14.581Z,18.05
2023-04-22T18:59:44.930Z,17.74
2023-04-22T19:02:13.078Z,17.57
2023-04-22T19:04:41.494Z,17.57
2023-04-22T19:07:09.043Z,17.52
2023-04-22T19:09:36.252Z,17.21
2023-04-22T19:12:03.843Z,17.03
2023-04-22T19:14:31.466Z,17.06
2023-04-22T19:16:59.184Z,17.37
2023-04-22T19:19:28.122Z,17.24
2023-04-22T19:21:55.886Z,17.13
2023-04-22T19:24:23.337Z,16.78
2023-04-22T19:26:51.515Z,16.71
2023-04-22T19:29:19.028Z,16.85
2023-04-22T19:31:46.615Z,15.79
2023-04-22T19:34:14.647Z,16.48
2023-04-22T19:36:41.979Z,15.72
2023-04-22T19:39:09.585Z,15.18
2023-04-22T19:41:38.145Z,15.07
2023-04-22T19:44:05.806Z,14.74
2023-04-22T19:46:33.100Z,14.84
2023-04-22T19:49:01.068Z,14.62
2023-04-22T19:51:29.220Z,15.06
2023-04-22T19:53:59.984Z,15.52
2023-04-22T19:56:28.605Z,15.77
2023-04-22T19:58:56.576Z,15.65
2023-04-22T20:01:24.008Z,15.21
2023-04-22T20:03:53.801Z,14.80
2023-04-22T20:06:22.832Z,14.10
2023-04-22T20:08:54.021Z,14.28
2023-04-22T20:11:23.265Z,13.91
2023-04-22T20:13:51.071Z,14.13
2023-04-22T20:16:19.454Z,14.40
2023-04-22T20:18:47.367Z,14.51
2023-04-22T20:21:14.771Z,14.48
2023-04-22T20:23:42.507Z,13.81
2023-04-22T20:26:10.429Z,13.59
2023-04-22T20:28:48.782Z,13.87
2023-04-22T20:31:18.642Z,14.18
2023-04-22T20:33:46.639Z,13.65
2023-04-22T20:36:15.302Z,12.96
2023-04-22T20:38:48.896Z,13.42
2023-04-22T20:41:18.922Z,13.71
2023-04-22T20:43:47.255Z,14.32
2023-04-22T20:46:14.614Z,14.14
2023-04-22T20:48:42.631Z,13.63
2023-04-22T20:51:10.317Z,13.17
2023-04-22T20:53:38.189Z,12.73
2023-04-22T20:56:07.464Z,13.48
2023-04-22T20:58:35.056Z,13.41
2023-04-22T21:01:02.352Z,13.56
2023-04-22T21:03:29.595Z,12.90
2023-04-22T21:05:58.473Z,13.18
2023-04-22T21:08:26.427Z,13.03
2023-04-22T21:10:55.550Z,13.34
2023-04-22T21:13:23.773Z,13.55
2023-04-22T21:15:55.478Z,13.00
2023-04-22T21:18:24.174Z,12.50
2023-04-22T21:20:51.678Z,12.74
2023-04-22T21:23:20.516Z,11.54
2023-04-22T21:25:48.644Z,11.37
2023-04-22T21:28:17.126Z,11.67
2023-04-22T21:30:44.862Z,12.58
2023-04-22T21:33:13.412Z,12.99
2023-04-22T21:35:40.924Z,13.21
2023-04-22T21:38:09.095Z,13.13
2023-04-22T21:40:36.904Z,13.42
2023-04-22T21:43:07.469Z,12.79
2023-04-22T21:45:35.116Z,12.60
2023-04-22T21:48:04.511Z,12.17
2023-04-22T21:50:32.481Z,12.49
2023-04-22T21:53:00.546Z,11.93
2023-04-22T21:55:29.529Z,11.88
2023-04-22T21:57:56.986Z,11.71
2023-04-22T22:00:25.439Z,11.56
2023-04-22T22:02:53.600Z,11.26
2023-04-22T22:05:21.182Z,11.53
2023-04-22T22:07:49.090Z,11.77
2023-04-22T22:10:23.194Z,11.73
2023-04-22T22:12:50.912Z,11.85
2023-04-22T22:15:19.041Z,11.63
2023-04-22T22:17:46.837Z,11.90
2023-04-22T22:20:20.749Z,11.15
2023-04-22T22:22:49.777Z,11.09
2023-04-22T22:25:17.356Z,11.07
2023-04-22T22:27:49.199Z,10.99
2023-04-22T22:30:18.830Z,10.97
2023-04-22T22:32:46.690Z,11.05
2023-04-22T22:35:14.725Z,10.71
2023-04-22T22:37:43.106Z,10.58
2023-04-22T22:40:11.590Z,10.68
2023-04-22T22:42:39.086Z,10.72
2023-04-22T22:45:07.307Z,10.60
2023-04-22T22:47:35.434Z,10.50
2023-04-22T22:50:03.133Z,10.54
2023-04-22T22:52:32.044Z,10.54
2023-04-22T22:54:59.418Z,10.25
2023-04-22T22:57:26.836Z,10.31
2023-04-22T22:59:54.477Z,10.18
2023-04-22T23:02:21.961Z,10.06
2023-04-22T23:04:49.515Z,9.87
2023-04-22T23:07:17.728Z,9.95
2023-04-22T23:09:45.256Z,10.16
2023-04-22T23:12:12.653Z,10.19
2023-04-22T23:14:40.703Z,10.46
2023-04-22T23:17:08.423Z,10.12
2023-04-22T23:19:36.328Z,10.16
2023-04-22T23:22:06.712Z,10.01
2023-04-22T23:24:34.398Z,9.83
2023-04-22T23:27:02.184Z,9.92
2023-04-22T23:29:30.886Z,10.13
2023-04-22T23:32:00.898Z,10.18
2023-04-22T23:34:31.566Z,10.31
2023-04-22T23:36:59.349Z,10.32
2023-04-22T23:39:26.742Z,10.45
2023-04-22T23:41:54.164Z,10.10
2023-04-22T23:44:21.816Z,10.02
2023-04-22T23:46:49.697Z,9.99
2023-04-22T23:49:17.119Z,9.93
2023-04-22T23:51:44.769Z,9.95
2023-04-22T23:54:12.470Z,9.80
2023-04-22T23:56:40.962Z,10.10
2023-04-22T23:59:08.769Z,10.08
